sensor_id;sensor_type;location;lat;lon;timestamp;temperature;humidity
40600;DHT22;26309;50.924;4.754;2023-07-30T00:00:56;17.50;99.90
40600;DHT22;26309;50.924;4.754;2023-07-30T00:03:22;17.40;99.90
40600;DHT22;26309;50.924;4.754;2023-07-30T00:05:53;17.60;99.90
40600;DHT22;26309;50.924;4.754;2023-07-30T00:08:19;17.70;99.90
40600;DHT22;26309;50.924;4.754;2023-07-30T00:10:45;17.40;99.90
40600;DHT22;26309;50.924;4.754;2023-07-30T00:13:11;17.30;99.90
40600;DHT22;26309;50.924;4.754;2023-07-30T00:15:37;17.30;99.90
40600;DHT22;26309;50.924;4.754;2023-07-30T00:18:06;17.20;99.90
40600;DHT22;26309;50.924;4.754;2023-07-30T00:20:34;17.20;99.90
40600;DHT22;26309;50.924;4.754;2023-07-30T00:23:00;17.20;99.90
40600;DHT22;26309;50.924;4.754;2023-07-30T00:25:26;17.20;99.90
40600;DHT22;26309;50.924;4.754;2023-07-30T00:27:51;17.30;99.90
40600;DHT22;26309;50.924;4.754;2023-07-30T00:30:17;17.20;99.90
40600;DHT22;26309;50.924;4.754;2023-07-30T00:32:43;17.20;99.90
40600;DHT22;26309;50.924;4.754;2023-07-30T00:35:10;17.20;99.90
40600;DHT22;26309;50.924;4.754;2023-07-30T00:37:36;17.40;99.90
40600;DHT22;26309;50.924;4.754;2023-07-30T00:40:02;17.40;99.90
40600;DHT22;26309;50.924;4.754;2023-07-30T00:42:29;17.40;99.90
40600;DHT22;26309;50.924;4.754;2023-07-30T00:44:55;17.20;99.90
40600;DHT22;26309;50.924;4.754;2023-07-30T00:47:21;17.10;99.90
40600;DHT22;26309;50.924;4.754;2023-07-30T00:49:49;17.10;99.90
40600;DHT22;26309;50.924;4.754;2023-07-30T00:52:17;17.10;99.90
40600;DHT22;26309;50.924;4.754;2023-07-30T00:54:44;17.10;99.90
40600;DHT22;26309;50.924;4.754;2023-07-30T00:57:10;17.10;99.90
40600;DHT22;26309;50.924;4.754;2023-07-30T00:59:37;17.10;99.90
40600;DHT22;26309;50.924;4.754;2023-07-30T01:02:04;17.10;99.90
40600;DHT22;26309;50.924;4.754;2023-07-30T01:04:30;17.00;99.90
40600;DHT22;26309;50.924;4.754;2023-07-30T01:06:56;17.00;99.90
40600;DHT22;26309;50.924;4.754;2023-07-30T01:09:22;17.00;99.90
40600;DHT22;26309;50.924;4.754;2023-07-30T01:11:49;16.80;99.90
40600;DHT22;26309;50.924;4.754;2023-07-30T01:14:15;16.90;99.90
40600;DHT22;26309;50.924;4.754;2023-07-30T01:16:42;17.00;99.90
40600;DHT22;26309;50.924;4.754;2023-07-30T01:19:08;17.00;99.90
40600;DHT22;26309;50.924;4.754;2023-07-30T01:21:35;16.90;99.90
40600;DHT22;26309;50.924;4.754;2023-07-30T01:24:01;17.00;99.90
40600;DHT22;26309;50.924;4.754;2023-07-30T01:26:35;17.10;99.90
40600;DHT22;26309;50.924;4.754;2023-07-30T01:29:08;17.10;99.90
40600;DHT22;26309;50.924;4.754;2023-07-30T01:31:36;17.20;99.90
40600;DHT22;26309;50.924;4.754;2023-07-30T01:34:05;17.20;99.90
40600;DHT22;26309;50.924;4.754;2023-07-30T01:36:33;17.20;99.90
40600;DHT22;26309;50.924;4.754;2023-07-30T01:39:00;17.30;99.90
40600;DHT22;26309;50.924;4.754;2023-07-30T01:41:26;17.30;99.90
40600;DHT22;26309;50.924;4.754;2023-07-30T01:43:53;17.30;99.90
40600;DHT22;26309;50.924;4.754;2023-07-30T01:46:18;17.40;99.90
40600;DHT22;26309;50.924;4.754;2023-07-30T01:48:44;17.40;99.90
40600;DHT22;26309;50.924;4.754;2023-07-30T01:51:10;17.60;99.90
40600;DHT22;26309;50.924;4.754;2023-07-30T01:53:36;17.60;99.90
40600;DHT22;26309;50.924;4.754;2023-07-30T01:56:02;17.60;99.90
40600;DHT22;26309;50.924;4.754;2023-07-30T01:58:28;17.60;99.90
40600;DHT22;26309;50.924;4.754;2023-07-30T02:00:53;17.60;99.90
40600;DHT22;26309;50.924;4.754;2023-07-30T02:03:19;17.60;99.90
40600;DHT22;26309;50.924;4.754;2023-07-30T02:05:45;17.60;99.90
40600;DHT22;26309;50.924;4.754;2023-07-30T02:08:11;17.70;99.90
40600;DHT22;26309;50.924;4.754;2023-07-30T02:10:41;17.80;99.90
40600;DHT22;26309;50.924;4.754;2023-07-30T02:13:14;17.70;99.90
40600;DHT22;26309;50.924;4.754;2023-07-30T02:15:40;17.80;99.90
40600;DHT22;26309;50.924;4.754;2023-07-30T02:18:07;17.80;99.90
40600;DHT22;26309;50.924;4.754;2023-07-30T02:20:35;17.70;99.90
40600;DHT22;26309;50.924;4.754;2023-07-30T02:23:01;17.70;99.90
40600;DHT22;26309;50.924;4.754;2023-07-30T02:25:27;17.70;99.90
40600;DHT22;26309;50.924;4.754;2023-07-30T02:27:52;17.70;99.90
40600;DHT22;26309;50.924;4.754;2023-07-30T02:30:18;17.80;99.90
40600;DHT22;26309;50.924;4.754;2023-07-30T02:32:44;17.70;99.90
40600;DHT22;26309;50.924;4.754;2023-07-30T02:35:10;17.60;99.90
40600;DHT22;26309;50.924;4.754;2023-07-30T02:37:36;17.70;99.90
40600;DHT22;26309;50.924;4.754;2023-07-30T02:40:01;17.80;99.90
40600;DHT22;26309;50.924;4.754;2023-07-30T02:42:31;17.80;99.90
40600;DHT22;26309;50.924;4.754;2023-07-30T02:45:00;17.70;99.90
40600;DHT22;26309;50.924;4.754;2023-07-30T02:47:25;17.80;99.90
40600;DHT22;26309;50.924;4.754;2023-07-30T02:49:51;17.80;99.90
40600;DHT22;26309;50.924;4.754;2023-07-30T02:52:17;17.70;99.90
40600;DHT22;26309;50.924;4.754;2023-07-30T02:54:43;17.60;99.90
40600;DHT22;26309;50.924;4.754;2023-07-30T02:57:08;17.60;99.90
40600;DHT22;26309;50.924;4.754;2023-07-30T02:59:35;17.60;99.90
40600;DHT22;26309;50.924;4.754;2023-07-30T03:02:03;17.40;99.90
40600;DHT22;26309;50.924;4.754;2023-07-30T03:04:31;17.50;99.90
40600;DHT22;26309;50.924;4.754;2023-07-30T03:06:57;17.40;99.90
40600;DHT22;26309;50.924;4.754;2023-07-30T03:09:22;17.40;99.90
40600;DHT22;26309;50.924;4.754;2023-07-30T03:11:51;17.40;99.90
40600;DHT22;26309;50.924;4.754;2023-07-30T03:14:17;17.40;99.90
40600;DHT22;26309;50.924;4.754;2023-07-30T03:16:49;17.50;99.90
40600;DHT22;26309;50.924;4.754;2023-07-30T03:19:15;17.50;99.90
40600;DHT22;26309;50.924;4.754;2023-07-30T03:21:41;17.20;99.90
40600;DHT22;26309;50.924;4.754;2023-07-30T03:24:07;17.20;99.90
40600;DHT22;26309;50.924;4.754;2023-07-30T03:26:33;17.10;99.90
40600;DHT22;26309;50.924;4.754;2023-07-30T03:28:59;17.00;99.90
40600;DHT22;26309;50.924;4.754;2023-07-30T03:31:25;17.00;99.90
40600;DHT22;26309;50.924;4.754;2023-07-30T03:33:51;17.00;99.90
40600;DHT22;26309;50.924;4.754;2023-07-30T03:36:17;17.10;99.90
40600;DHT22;26309;50.924;4.754;2023-07-30T03:38:43;17.10;99.90
40600;DHT22;26309;50.924;4.754;2023-07-30T03:41:10;17.20;99.90
40600;DHT22;26309;50.924;4.754;2023-07-30T03:43:36;17.20;99.90
40600;DHT22;26309;50.924;4.754;2023-07-30T03:46:02;17.20;99.90
40600;DHT22;26309;50.924;4.754;2023-07-30T03:48:28;17.20;99.90
40600;DHT22;26309;50.924;4.754;2023-07-30T03:50:55;17.20;99.90
40600;DHT22;26309;50.924;4.754;2023-07-30T03:53:21;17.30;99.90
40600;DHT22;26309;50.924;4.754;2023-07-30T03:55:46;17.30;99.90
40600;DHT22;26309;50.924;4.754;2023-07-30T03:58:12;17.40;99.90
40600;DHT22;26309;50.924;4.754;2023-07-30T04:00:39;17.50;99.90
40600;DHT22;26309;50.924;4.754;2023-07-30T04:03:05;17.40;99.90
40600;DHT22;26309;50.924;4.754;2023-07-30T04:05:31;17.50;99.90
40600;DHT22;26309;50.924;4.754;2023-07-30T04:07:56;17.60;99.90
40600;DHT22;26309;50.924;4.754;2023-07-30T04:10:22;17.60;99.90
40600;DHT22;26309;50.924;4.754;2023-07-30T04:12:48;17.60;99.90
40600;DHT22;26309;50.924;4.754;2023-07-30T04:15:15;17.50;99.90
40600;DHT22;26309;50.924;4.754;2023-07-30T04:17:41;17.50;99.90
40600;DHT22;26309;50.924;4.754;2023-07-30T04:20:08;17.50;99.90
40600;DHT22;26309;50.924;4.754;2023-07-30T04:22:37;17.60;99.90
40600;DHT22;26309;50.924;4.754;2023-07-30T04:25:03;17.70;99.90
40600;DHT22;26309;50.924;4.754;2023-07-30T04:27:29;17.70;99.90
40600;DHT22;26309;50.924;4.754;2023-07-30T04:29:55;17.70;99.90
40600;DHT22;26309;50.924;4.754;2023-07-30T04:32:21;17.70;99.90
40600;DHT22;26309;50.924;4.754;2023-07-30T04:34:47;17.60;99.90
40600;DHT22;26309;50.924;4.754;2023-07-30T04:37:13;17.60;99.90
40600;DHT22;26309;50.924;4.754;2023-07-30T04:39:39;17.60;99.90
40600;DHT22;26309;50.924;4.754;2023-07-30T04:42:05;17.60;99.90
40600;DHT22;26309;50.924;4.754;2023-07-30T04:44:31;17.60;99.90
40600;DHT22;26309;50.924;4.754;2023-07-30T04:46:59;17.70;99.90
40600;DHT22;26309;50.924;4.754;2023-07-30T04:49:25;17.70;99.90
40600;DHT22;26309;50.924;4.754;2023-07-30T04:51:51;17.80;99.90
40600;DHT22;26309;50.924;4.754;2023-07-30T04:54:16;17.80;99.90
40600;DHT22;26309;50.924;4.754;2023-07-30T04:56:42;17.80;99.90
40600;DHT22;26309;50.924;4.754;2023-07-30T04:59:08;17.80;99.90
40600;DHT22;26309;50.924;4.754;2023-07-30T05:01:34;17.70;99.90
40600;DHT22;26309;50.924;4.754;2023-07-30T05:04:00;17.70;99.90
40600;DHT22;26309;50.924;4.754;2023-07-30T05:06:25;17.80;99.90
40600;DHT22;26309;50.924;4.754;2023-07-30T05:08:51;17.80;99.90
40600;DHT22;26309;50.924;4.754;2023-07-30T05:11:17;17.80;99.90
40600;DHT22;26309;50.924;4.754;2023-07-30T05:13:43;17.80;99.90
40600;DHT22;26309;50.924;4.754;2023-07-30T05:16:09;17.60;99.90
40600;DHT22;26309;50.924;4.754;2023-07-30T05:18:35;17.70;99.90
40600;DHT22;26309;50.924;4.754;2023-07-30T05:21:01;17.80;99.90
40600;DHT22;26309;50.924;4.754;2023-07-30T05:23:26;17.80;99.90
40600;DHT22;26309;50.924;4.754;2023-07-30T05:25:52;17.80;99.90
40600;DHT22;26309;50.924;4.754;2023-07-30T05:28:18;18.00;99.90
40600;DHT22;26309;50.924;4.754;2023-07-30T05:30:44;18.00;99.90
40600;DHT22;26309;50.924;4.754;2023-07-30T05:33:10;18.20;99.90
40600;DHT22;26309;50.924;4.754;2023-07-30T05:35:36;18.10;99.90
40600;DHT22;26309;50.924;4.754;2023-07-30T05:38:02;18.10;99.90
40600;DHT22;26309;50.924;4.754;2023-07-30T05:40:27;18.10;99.90
40600;DHT22;26309;50.924;4.754;2023-07-30T05:42:53;18.20;99.90
40600;DHT22;26309;50.924;4.754;2023-07-30T05:45:19;18.10;99.90
40600;DHT22;26309;50.924;4.754;2023-07-30T05:47:45;18.00;99.90
40600;DHT22;26309;50.924;4.754;2023-07-30T05:50:11;18.00;99.90
40600;DHT22;26309;50.924;4.754;2023-07-30T05:52:36;18.10;99.90
40600;DHT22;26309;50.924;4.754;2023-07-30T05:55:10;18.20;99.90
40600;DHT22;26309;50.924;4.754;2023-07-30T05:57:36;18.20;99.90
40600;DHT22;26309;50.924;4.754;2023-07-30T06:00:02;18.40;99.90
40600;DHT22;26309;50.924;4.754;2023-07-30T06:02:28;18.40;99.90
40600;DHT22;26309;50.924;4.754;2023-07-30T06:04:54;18.50;99.90
40600;DHT22;26309;50.924;4.754;2023-07-30T06:07:20;18.20;99.90
40600;DHT22;26309;50.924;4.754;2023-07-30T06:09:46;18.30;99.90
40600;DHT22;26309;50.924;4.754;2023-07-30T06:12:11;18.20;99.90
40600;DHT22;26309;50.924;4.754;2023-07-30T06:14:37;18.20;99.90
40600;DHT22;26309;50.924;4.754;2023-07-30T06:17:03;18.40;99.90
40600;DHT22;26309;50.924;4.754;2023-07-30T06:19:29;18.50;99.90
40600;DHT22;26309;50.924;4.754;2023-07-30T06:21:55;18.50;99.90
40600;DHT22;26309;50.924;4.754;2023-07-30T06:24:21;18.60;99.90
40600;DHT22;26309;50.924;4.754;2023-07-30T06:26:50;18.60;99.90
40600;DHT22;26309;50.924;4.754;2023-07-30T06:29:16;18.50;99.90
40600;DHT22;26309;50.924;4.754;2023-07-30T06:31:42;18.50;99.90
40600;DHT22;26309;50.924;4.754;2023-07-30T06:34:08;18.30;99.90
40600;DHT22;26309;50.924;4.754;2023-07-30T06:36:34;18.20;99.90
40600;DHT22;26309;50.924;4.754;2023-07-30T06:39:00;18.10;99.90
40600;DHT22;26309;50.924;4.754;2023-07-30T06:41:26;18.20;99.90
40600;DHT22;26309;50.924;4.754;2023-07-30T06:43:52;18.10;99.90
40600;DHT22;26309;50.924;4.754;2023-07-30T06:46:17;18.20;99.90
40600;DHT22;26309;50.924;4.754;2023-07-30T06:48:43;18.40;99.90
40600;DHT22;26309;50.924;4.754;2023-07-30T06:51:10;18.40;99.90
40600;DHT22;26309;50.924;4.754;2023-07-30T06:53:36;18.50;99.90
40600;DHT22;26309;50.924;4.754;2023-07-30T06:56:02;18.60;99.90
40600;DHT22;26309;50.924;4.754;2023-07-30T06:58:28;18.70;99.90
40600;DHT22;26309;50.924;4.754;2023-07-30T07:00:54;18.60;99.90
40600;DHT22;26309;50.924;4.754;2023-07-30T07:03:20;18.50;99.90
40600;DHT22;26309;50.924;4.754;2023-07-30T07:05:55;18.40;99.90
40600;DHT22;26309;50.924;4.754;2023-07-30T07:08:22;18.30;99.90
40600;DHT22;26309;50.924;4.754;2023-07-30T07:10:48;18.20;99.90
40600;DHT22;26309;50.924;4.754;2023-07-30T07:13:14;18.30;99.90
40600;DHT22;26309;50.924;4.754;2023-07-30T07:15:43;18.60;99.90
40600;DHT22;26309;50.924;4.754;2023-07-30T07:18:10;19.00;99.90
40600;DHT22;26309;50.924;4.754;2023-07-30T07:20:37;19.30;99.90
40600;DHT22;26309;50.924;4.754;2023-07-30T07:23:03;19.50;99.90
40600;DHT22;26309;50.924;4.754;2023-07-30T07:25:29;19.90;99.90
40600;DHT22;26309;50.924;4.754;2023-07-30T07:27:55;20.20;99.90
40600;DHT22;26309;50.924;4.754;2023-07-30T07:30:21;20.40;99.90
40600;DHT22;26309;50.924;4.754;2023-07-30T07:32:47;20.30;99.90
40600;DHT22;26309;50.924;4.754;2023-07-30T07:35:18;20.30;99.90
40600;DHT22;26309;50.924;4.754;2023-07-30T07:37:44;20.40;99.90
40600;DHT22;26309;50.924;4.754;2023-07-30T07:40:10;20.00;99.90
40600;DHT22;26309;50.924;4.754;2023-07-30T07:42:38;20.10;99.90
40600;DHT22;26309;50.924;4.754;2023-07-30T07:45:06;20.00;99.90
40600;DHT22;26309;50.924;4.754;2023-07-30T07:47:32;20.00;99.90
40600;DHT22;26309;50.924;4.754;2023-07-30T07:49:58;20.10;99.90
40600;DHT22;26309;50.924;4.754;2023-07-30T07:52:23;20.10;99.90
40600;DHT22;26309;50.924;4.754;2023-07-30T07:54:49;20.20;99.90
40600;DHT22;26309;50.924;4.754;2023-07-30T07:57:15;20.30;99.90
40600;DHT22;26309;50.924;4.754;2023-07-30T07:59:41;20.40;99.90
40600;DHT22;26309;50.924;4.754;2023-07-30T08:02:11;20.60;99.90
40600;DHT22;26309;50.924;4.754;2023-07-30T08:04:37;20.60;99.90
40600;DHT22;26309;50.924;4.754;2023-07-30T08:07:03;20.70;99.90
40600;DHT22;26309;50.924;4.754;2023-07-30T08:09:30;20.90;99.90
40600;DHT22;26309;50.924;4.754;2023-07-30T08:11:56;20.80;99.90
40600;DHT22;26309;50.924;4.754;2023-07-30T08:14:22;20.80;99.90
40600;DHT22;26309;50.924;4.754;2023-07-30T08:16:48;20.70;99.90
40600;DHT22;26309;50.924;4.754;2023-07-30T08:19:14;20.80;99.90
40600;DHT22;26309;50.924;4.754;2023-07-30T08:21:39;20.70;99.90
40600;DHT22;26309;50.924;4.754;2023-07-30T08:24:05;20.70;99.90
40600;DHT22;26309;50.924;4.754;2023-07-30T08:26:32;21.00;99.90
40600;DHT22;26309;50.924;4.754;2023-07-30T08:28:58;21.10;99.90
40600;DHT22;26309;50.924;4.754;2023-07-30T08:31:23;21.10;99.90
40600;DHT22;26309;50.924;4.754;2023-07-30T08:33:49;21.00;99.90
40600;DHT22;26309;50.924;4.754;2023-07-30T08:36:15;20.80;99.90
40600;DHT22;26309;50.924;4.754;2023-07-30T08:38:41;20.90;99.90
40600;DHT22;26309;50.924;4.754;2023-07-30T08:41:07;21.00;99.90
40600;DHT22;26309;50.924;4.754;2023-07-30T08:43:34;20.90;99.90
40600;DHT22;26309;50.924;4.754;2023-07-30T08:46:00;20.90;99.90
40600;DHT22;26309;50.924;4.754;2023-07-30T08:48:27;20.90;99.90
40600;DHT22;26309;50.924;4.754;2023-07-30T08:50:56;20.90;99.90
40600;DHT22;26309;50.924;4.754;2023-07-30T08:53:25;21.20;99.90
40600;DHT22;26309;50.924;4.754;2023-07-30T08:55:54;21.10;99.90
40600;DHT22;26309;50.924;4.754;2023-07-30T08:58:22;20.90;99.90
40600;DHT22;26309;50.924;4.754;2023-07-30T09:00:50;20.50;99.90
40600;DHT22;26309;50.924;4.754;2023-07-30T09:03:17;20.60;99.90
40600;DHT22;26309;50.924;4.754;2023-07-30T09:05:44;20.50;99.90
40600;DHT22;26309;50.924;4.754;2023-07-30T09:08:10;20.50;99.90
40600;DHT22;26309;50.924;4.754;2023-07-30T09:10:37;20.60;99.90
40600;DHT22;26309;50.924;4.754;2023-07-30T09:13:03;20.80;99.90
40600;DHT22;26309;50.924;4.754;2023-07-30T09:15:30;20.90;99.90
40600;DHT22;26309;50.924;4.754;2023-07-30T09:17:58;20.80;99.90
40600;DHT22;26309;50.924;4.754;2023-07-30T09:20:24;20.80;99.90
40600;DHT22;26309;50.924;4.754;2023-07-30T09:22:50;20.70;99.90
40600;DHT22;26309;50.924;4.754;2023-07-30T09:25:18;20.90;99.90
40600;DHT22;26309;50.924;4.754;2023-07-30T09:27:49;20.70;99.90
40600;DHT22;26309;50.924;4.754;2023-07-30T09:30:24;19.20;99.90
40600;DHT22;26309;50.924;4.754;2023-07-30T09:32:55;18.40;99.90
40600;DHT22;26309;50.924;4.754;2023-07-30T09:35:24;17.90;99.90
40600;DHT22;26309;50.924;4.754;2023-07-30T09:38:01;17.70;99.90
40600;DHT22;26309;50.924;4.754;2023-07-30T09:40:35;17.40;99.90
40600;DHT22;26309;50.924;4.754;2023-07-30T09:43:03;17.20;99.90
40600;DHT22;26309;50.924;4.754;2023-07-30T09:45:33;17.10;99.90
40600;DHT22;26309;50.924;4.754;2023-07-30T09:48:03;17.10;99.90
40600;DHT22;26309;50.924;4.754;2023-07-30T09:50:30;17.30;99.90
40600;DHT22;26309;50.924;4.754;2023-07-30T09:53:01;17.40;99.90
40600;DHT22;26309;50.924;4.754;2023-07-30T09:55:27;17.50;99.90
40600;DHT22;26309;50.924;4.754;2023-07-30T09:57:53;17.70;99.90
40600;DHT22;26309;50.924;4.754;2023-07-30T10:00:19;17.70;99.90
40600;DHT22;26309;50.924;4.754;2023-07-30T10:02:49;17.70;99.90
40600;DHT22;26309;50.924;4.754;2023-07-30T10:05:19;17.90;99.90
40600;DHT22;26309;50.924;4.754;2023-07-30T10:08:07;18.00;99.90
40600;DHT22;26309;50.924;4.754;2023-07-30T10:10:37;18.40;99.90
40600;DHT22;26309;50.924;4.754;2023-07-30T10:13:09;18.80;99.90
40600;DHT22;26309;50.924;4.754;2023-07-30T10:15:38;19.00;99.90
40600;DHT22;26309;50.924;4.754;2023-07-30T10:18:04;19.10;99.90
40600;DHT22;26309;50.924;4.754;2023-07-30T10:20:31;19.10;99.90
40600;DHT22;26309;50.924;4.754;2023-07-30T10:23:00;18.80;99.90
40600;DHT22;26309;50.924;4.754;2023-07-30T10:25:46;18.40;99.90
40600;DHT22;26309;50.924;4.754;2023-07-30T10:31:06;18.10;99.90
40600;DHT22;26309;50.924;4.754;2023-07-30T10:36:11;18.40;99.90
40600;DHT22;26309;50.924;4.754;2023-07-30T10:38:37;18.50;99.90
40600;DHT22;26309;50.924;4.754;2023-07-30T10:41:16;18.80;99.90
40600;DHT22;26309;50.924;4.754;2023-07-30T10:43:49;19.10;99.90
40600;DHT22;26309;50.924;4.754;2023-07-30T10:46:17;19.30;99.90
40600;DHT22;26309;50.924;4.754;2023-07-30T10:48:46;19.60;99.90
40600;DHT22;26309;50.924;4.754;2023-07-30T10:51:17;19.80;99.90
40600;DHT22;26309;50.924;4.754;2023-07-30T10:53:44;19.90;99.90
40600;DHT22;26309;50.924;4.754;2023-07-30T10:56:12;19.90;99.90
40600;DHT22;26309;50.924;4.754;2023-07-30T10:58:38;19.90;99.90
40600;DHT22;26309;50.924;4.754;2023-07-30T11:01:06;20.00;99.90
40600;DHT22;26309;50.924;4.754;2023-07-30T11:03:32;20.10;99.90
40600;DHT22;26309;50.924;4.754;2023-07-30T11:05:59;20.00;99.90
40600;DHT22;26309;50.924;4.754;2023-07-30T11:08:42;20.10;99.90
40600;DHT22;26309;50.924;4.754;2023-07-30T11:11:10;19.90;99.90
40600;DHT22;26309;50.924;4.754;2023-07-30T11:13:44;20.00;99.90
40600;DHT22;26309;50.924;4.754;2023-07-30T11:16:12;20.00;99.90
40600;DHT22;26309;50.924;4.754;2023-07-30T11:18:40;20.30;99.90
40600;DHT22;26309;50.924;4.754;2023-07-30T11:21:10;20.40;99.90
40600;DHT22;26309;50.924;4.754;2023-07-30T11:23:38;20.30;99.90
40600;DHT22;26309;50.924;4.754;2023-07-30T11:26:07;20.00;99.90
40600;DHT22;26309;50.924;4.754;2023-07-30T11:28:38;20.10;99.90
40600;DHT22;26309;50.924;4.754;2023-07-30T11:31:16;20.30;99.90
40600;DHT22;26309;50.924;4.754;2023-07-30T11:33:46;21.00;99.90
40600;DHT22;26309;50.924;4.754;2023-07-30T11:36:19;21.30;99.90
40600;DHT22;26309;50.924;4.754;2023-07-30T11:38:47;21.40;99.90
40600;DHT22;26309;50.924;4.754;2023-07-30T11:41:13;21.50;99.90
40600;DHT22;26309;50.924;4.754;2023-07-30T11:43:41;21.60;99.90
40600;DHT22;26309;50.924;4.754;2023-07-30T11:46:12;21.70;99.90
40600;DHT22;26309;50.924;4.754;2023-07-30T11:48:41;21.90;99.90
40600;DHT22;26309;50.924;4.754;2023-07-30T11:51:19;21.90;99.90
40600;DHT22;26309;50.924;4.754;2023-07-30T11:53:51;21.80;99.90
40600;DHT22;26309;50.924;4.754;2023-07-30T11:56:22;22.00;99.90
40600;DHT22;26309;50.924;4.754;2023-07-30T11:58:49;22.10;99.90
40600;DHT22;26309;50.924;4.754;2023-07-30T12:01:18;22.10;99.90
40600;DHT22;26309;50.924;4.754;2023-07-30T12:03:45;22.10;99.90
40600;DHT22;26309;50.924;4.754;2023-07-30T12:06:11;22.10;99.90
40600;DHT22;26309;50.924;4.754;2023-07-30T12:08:37;22.00;99.90
40600;DHT22;26309;50.924;4.754;2023-07-30T12:11:05;22.20;99.90
40600;DHT22;26309;50.924;4.754;2023-07-30T12:13:32;22.60;99.90
40600;DHT22;26309;50.924;4.754;2023-07-30T12:15:58;22.60;99.90
40600;DHT22;26309;50.924;4.754;2023-07-30T12:18:25;22.70;99.90
40600;DHT22;26309;50.924;4.754;2023-07-30T12:20:53;22.60;99.90
40600;DHT22;26309;50.924;4.754;2023-07-30T12:23:22;22.40;99.90
40600;DHT22;26309;50.924;4.754;2023-07-30T12:25:48;22.30;99.90
40600;DHT22;26309;50.924;4.754;2023-07-30T12:28:14;22.20;99.90
40600;DHT22;26309;50.924;4.754;2023-07-30T12:30:40;22.30;99.90
40600;DHT22;26309;50.924;4.754;2023-07-30T12:33:06;22.60;99.90
40600;DHT22;26309;50.924;4.754;2023-07-30T12:35:32;22.70;99.90
40600;DHT22;26309;50.924;4.754;2023-07-30T12:37:59;22.70;99.90
40600;DHT22;26309;50.924;4.754;2023-07-30T12:40:26;22.60;99.90
40600;DHT22;26309;50.924;4.754;2023-07-30T12:42:52;22.40;99.90
40600;DHT22;26309;50.924;4.754;2023-07-30T12:45:18;22.80;99.90
40600;DHT22;26309;50.924;4.754;2023-07-30T12:47:44;23.00;99.90
40600;DHT22;26309;50.924;4.754;2023-07-30T12:50:11;22.90;99.90
40600;DHT22;26309;50.924;4.754;2023-07-30T12:52:37;23.10;99.90
40600;DHT22;26309;50.924;4.754;2023-07-30T12:55:03;23.00;99.90
40600;DHT22;26309;50.924;4.754;2023-07-30T12:57:31;23.00;99.90
40600;DHT22;26309;50.924;4.754;2023-07-30T12:59:58;23.10;99.90
40600;DHT22;26309;50.924;4.754;2023-07-30T13:02:24;23.30;99.90
40600;DHT22;26309;50.924;4.754;2023-07-30T13:04:49;23.20;99.90
40600;DHT22;26309;50.924;4.754;2023-07-30T13:07:15;23.20;99.90
40600;DHT22;26309;50.924;4.754;2023-07-30T13:09:41;23.10;99.90
40600;DHT22;26309;50.924;4.754;2023-07-30T13:12:07;23.10;99.90
40600;DHT22;26309;50.924;4.754;2023-07-30T13:14:33;22.90;99.90
40600;DHT22;26309;50.924;4.754;2023-07-30T13:16:59;23.00;99.90
40600;DHT22;26309;50.924;4.754;2023-07-30T13:19:25;23.10;99.90
40600;DHT22;26309;50.924;4.754;2023-07-30T13:21:51;23.30;99.90
40600;DHT22;26309;50.924;4.754;2023-07-30T13:24:16;23.60;99.90
40600;DHT22;26309;50.924;4.754;2023-07-30T13:26:42;23.80;99.90
40600;DHT22;26309;50.924;4.754;2023-07-30T13:29:08;23.90;99.90
40600;DHT22;26309;50.924;4.754;2023-07-30T13:31:34;23.80;99.40
40600;DHT22;26309;50.924;4.754;2023-07-30T13:34:00;23.40;98.90
40600;DHT22;26309;50.924;4.754;2023-07-30T13:36:25;23.00;98.10
40600;DHT22;26309;50.924;4.754;2023-07-30T13:38:51;23.20;99.90
40600;DHT22;26309;50.924;4.754;2023-07-30T13:41:17;23.60;99.80
40600;DHT22;26309;50.924;4.754;2023-07-30T13:43:43;23.90;98.10
40600;DHT22;26309;50.924;4.754;2023-07-30T13:46:09;24.00;98.70
40600;DHT22;26309;50.924;4.754;2023-07-30T13:48:34;24.00;97.50
40600;DHT22;26309;50.924;4.754;2023-07-30T13:51:00;24.00;97.10
40600;DHT22;26309;50.924;4.754;2023-07-30T13:53:26;23.80;95.40
40600;DHT22;26309;50.924;4.754;2023-07-30T13:55:52;23.40;97.30
40600;DHT22;26309;50.924;4.754;2023-07-30T13:58:18;23.70;96.20
40600;DHT22;26309;50.924;4.754;2023-07-30T14:00:44;23.90;95.40
40600;DHT22;26309;50.924;4.754;2023-07-30T14:03:09;24.20;94.90
40600;DHT22;26309;50.924;4.754;2023-07-30T14:05:38;24.20;95.00
40600;DHT22;26309;50.924;4.754;2023-07-30T14:08:04;24.40;93.80
40600;DHT22;26309;50.924;4.754;2023-07-30T14:10:31;24.50;94.00
40600;DHT22;26309;50.924;4.754;2023-07-30T14:12:57;24.40;95.20
40600;DHT22;26309;50.924;4.754;2023-07-30T14:15:23;24.30;93.60
40600;DHT22;26309;50.924;4.754;2023-07-30T14:17:48;24.20;94.20
40600;DHT22;26309;50.924;4.754;2023-07-30T14:20:16;24.70;93.70
40600;DHT22;26309;50.924;4.754;2023-07-30T14:22:42;25.00;92.80
40600;DHT22;26309;50.924;4.754;2023-07-30T14:25:08;24.80;92.70
40600;DHT22;26309;50.924;4.754;2023-07-30T14:27:34;24.90;90.90
40600;DHT22;26309;50.924;4.754;2023-07-30T14:30:00;25.00;90.70
40600;DHT22;26309;50.924;4.754;2023-07-30T14:32:25;24.90;91.50
40600;DHT22;26309;50.924;4.754;2023-07-30T14:34:51;24.50;91.00
40600;DHT22;26309;50.924;4.754;2023-07-30T14:37:17;24.30;91.40
40600;DHT22;26309;50.924;4.754;2023-07-30T14:39:43;24.30;92.40
40600;DHT22;26309;50.924;4.754;2023-07-30T14:42:10;23.90;93.00
40600;DHT22;26309;50.924;4.754;2023-07-30T14:44:36;23.70;94.30
40600;DHT22;26309;50.924;4.754;2023-07-30T14:47:02;23.40;95.40
40600;DHT22;26309;50.924;4.754;2023-07-30T14:49:31;23.00;94.90
40600;DHT22;26309;50.924;4.754;2023-07-30T14:51:57;23.00;96.20
40600;DHT22;26309;50.924;4.754;2023-07-30T14:54:23;23.00;95.90
40600;DHT22;26309;50.924;4.754;2023-07-30T14:56:48;23.10;97.00
40600;DHT22;26309;50.924;4.754;2023-07-30T14:59:14;23.30;96.80
40600;DHT22;26309;50.924;4.754;2023-07-30T15:01:40;23.60;97.40
40600;DHT22;26309;50.924;4.754;2023-07-30T15:04:06;23.60;97.60
40600;DHT22;26309;50.924;4.754;2023-07-30T15:06:32;23.80;97.10
40600;DHT22;26309;50.924;4.754;2023-07-30T15:08:58;24.10;96.30
40600;DHT22;26309;50.924;4.754;2023-07-30T15:11:25;23.90;96.40
40600;DHT22;26309;50.924;4.754;2023-07-30T15:13:51;23.40;96.20
40600;DHT22;26309;50.924;4.754;2023-07-30T15:16:17;23.10;96.80
40600;DHT22;26309;50.924;4.754;2023-07-30T15:18:43;22.70;98.10
40600;DHT22;26309;50.924;4.754;2023-07-30T15:21:13;22.40;98.40
40600;DHT22;26309;50.924;4.754;2023-07-30T15:23:42;22.50;98.90
40600;DHT22;26309;50.924;4.754;2023-07-30T15:26:10;22.60;99.00
40600;DHT22;26309;50.924;4.754;2023-07-30T15:28:36;22.80;99.20
40600;DHT22;26309;50.924;4.754;2023-07-30T15:31:01;22.90;99.00
40600;DHT22;26309;50.924;4.754;2023-07-30T15:33:27;22.90;99.70